createdAt,value
2022-08-17T00:00:40.542Z,3.01
2022-08-17T00:05:48.668Z,3.01
2022-08-17T00:10:56.632Z,3.02
2022-08-17T00:16:04.698Z,3.01
2022-08-17T00:21:11.238Z,3.0
2022-08-17T00:26:19.597Z,3.0
2022-08-17T00:31:28.034Z,3.01
2022-08-17T00:36:36.927Z,3.0
2022-08-17T00:41:44.548Z,3.0
2022-08-17T00:46:51.735Z,3.01
2022-08-17T00:51:59.442Z,3.0
2022-08-17T00:57:07.047Z,3.0
2022-08-17T01:02:15.887Z,3.01
2022-08-17T01:07:23.435Z,3.01
2022-08-17T01:12:31.492Z,3.01
2022-08-17T01:17:38.813Z,3.02
2022-08-17T01:22:47.761Z,3.0
2022-08-17T01:37:06.313Z,3.01
2022-08-17T01:42:12.796Z,3.0
2022-08-17T01:47:22.329Z,3.01
2022-08-17T01:52:28.382Z,3.01
2022-08-17T01:57:36.215Z,3.01
2022-08-17T02:02:43.433Z,3.0
2022-08-17T02:07:50.569Z,3.0
2022-08-17T02:12:58.785Z,3.01
2022-08-17T02:18:06.306Z,3.0
2022-08-17T02:23:13.498Z,3.01
2022-08-17T02:28:21.127Z,3.0
2022-08-17T02:33:27.901Z,3.0
2022-08-17T02:38:36.894Z,2.99
2022-08-17T02:43:44.236Z,3.02
2022-08-17T02:48:52.342Z,3.01
2022-08-17T02:53:59.964Z,2.99
2022-08-17T02:59:07.514Z,3.0
2022-08-17T03:04:14.358Z,2.99
2022-08-17T03:09:22.323Z,3.0
2022-08-17T03:14:30.274Z,3.0
2022-08-17T03:19:37.321Z,3.0
2022-08-17T03:24:44.631Z,2.99
2022-08-17T03:29:52.212Z,3.0
2022-08-17T03:35:00.166Z,3.0
2022-08-17T03:40:07.291Z,3.0
2022-08-17T03:45:14.486Z,2.99
2022-08-17T03:50:22.870Z,3.0
2022-08-17T03:55:31.018Z,3.0
2022-08-17T04:00:37.334Z,3.01
2022-08-17T04:05:45.174Z,2.99
2022-08-17T04:10:54.045Z,3.0
2022-08-17T04:16:02.315Z,3.0
2022-08-17T04:21:10.132Z,3.01
2022-08-17T04:26:17.996Z,2.99
2022-08-17T04:31:25.635Z,3.0
2022-08-17T04:36:34.704Z,3.0
2022-08-17T04:41:44.265Z,3.0
2022-08-17T04:46:51.688Z,3.01
2022-08-17T04:52:07.260Z,3.01
2022-08-17T04:57:15.383Z,3.01
2022-08-17T05:02:22.314Z,3.01
2022-08-17T05:07:29.486Z,3.01
2022-08-17T05:12:37.384Z,3.01
2022-08-17T05:17:44.770Z,3.01
2022-08-17T05:22:52.496Z,3.02
2022-08-17T05:27:59.610Z,3.01
2022-08-17T05:33:07.869Z,3.02
2022-08-17T05:38:15.857Z,3.01
2022-08-17T05:43:24.039Z,3.01
2022-08-17T05:48:38.086Z,3.02
2022-08-17T05:53:45.853Z,3.02
2022-08-17T05:58:54.063Z,3.01
2022-08-17T06:04:01.890Z,3.02
2022-08-17T06:09:09.189Z,3.02
2022-08-17T06:14:16.984Z,3.02
2022-08-17T06:19:23.933Z,3.02
2022-08-17T06:24:31.526Z,3.01
2022-08-17T06:29:38.146Z,3.02
2022-08-17T06:34:45.749Z,3.02
2022-08-17T06:39:53.779Z,3.02
2022-08-17T06:45:00.393Z,3.02
2022-08-17T06:50:07.619Z,3.02
2022-08-17T06:55:15.281Z,3.01
2022-08-17T07:00:22.883Z,3.02
2022-08-17T07:05:31.092Z,3.02
2022-08-17T07:15:40.968Z,3.03
2022-08-17T07:16:43.776Z,3.02
2022-08-17T07:21:49.870Z,3.03
2022-08-17T07:26:57.577Z,3.02
2022-08-17T07:32:06.524Z,3.02
2022-08-17T07:37:13.841Z,3.02
2022-08-17T07:42:22.814Z,3.03
2022-08-17T07:47:30.172Z,3.02
2022-08-17T07:52:37.932Z,3.03
2022-08-17T07:57:45.004Z,3.03
2022-08-17T08:02:53.337Z,3.02
2022-08-17T08:08:02.947Z,3.02
2022-08-17T08:13:11.185Z,3.02
2022-08-17T08:23:47.711Z,3.03
2022-08-17T08:28:55.833Z,3.03
2022-08-17T08:34:03.452Z,3.03
2022-08-17T08:39:12.736Z,3.02
2022-08-17T08:44:20.655Z,3.03
2022-08-17T08:49:28.882Z,3.03
2022-08-17T08:54:37.288Z,3.03
2022-08-17T08:59:45.819Z,3.03
2022-08-17T09:04:54.240Z,3.03
2022-08-17T09:10:01.901Z,3.03
2022-08-17T09:15:09.865Z,3.04
2022-08-17T09:20:16.895Z,3.03
2022-08-17T09:25:24.359Z,3.03
2022-08-17T09:30:32.109Z,3.03
2022-08-17T09:35:40.385Z,3.03
2022-08-17T09:40:48.195Z,3.03
2022-08-17T09:45:56.613Z,3.04
2022-08-17T09:51:04.799Z,3.04
2022-08-17T09:56:12.410Z,3.04
2022-08-17T10:01:20.286Z,3.03
2022-08-17T10:06:27.414Z,3.03
2022-08-17T10:11:35.584Z,3.03
2022-08-17T10:16:43.713Z,3.03
2022-08-17T10:21:52.137Z,3.04
2022-08-17T10:26:59.014Z,3.04
2022-08-17T10:32:06.141Z,3.04
2022-08-17T10:37:13.811Z,3.04
2022-08-17T10:42:22.159Z,3.04
2022-08-17T10:47:29.250Z,3.03
2022-08-17T10:52:38.077Z,3.04
2022-08-17T10:57:45.594Z,3.04
2022-08-17T11:02:54.934Z,3.03
2022-08-17T11:08:02.169Z,3.03
2022-08-17T11:13:09.739Z,3.04
2022-08-17T11:18:18.364Z,3.04
2022-08-17T11:23:26.301Z,3.04
2022-08-17T11:28:33.536Z,3.03
2022-08-17T11:33:41.567Z,3.03
2022-08-17T11:38:50.330Z,3.04
2022-08-17T11:43:58.295Z,3.03
2022-08-17T11:49:06.007Z,3.03
2022-08-17T11:54:14.620Z,3.04
2022-08-17T11:59:27.811Z,3.05
2022-08-17T12:04:34.406Z,3.04
2022-08-17T12:09:42.280Z,3.04
2022-08-17T12:14:48.691Z,3.04
2022-08-17T12:19:55.413Z,3.04
2022-08-17T12:25:02.496Z,3.04
2022-08-17T12:30:10.807Z,3.04
2022-08-17T12:35:17.678Z,3.04
2022-08-17T12:40:24.541Z,3.04
2022-08-17T12:45:32.058Z,3.04
2022-08-17T12:50:39.826Z,3.04
2022-08-17T12:55:46.260Z,3.04
2022-08-17T13:00:54.939Z,3.04
2022-08-17T13:06:01.861Z,3.04
2022-08-17T13:11:09.053Z,3.04
2022-08-17T13:16:16.928Z,3.03
2022-08-17T13:21:25.254Z,3.04
2022-08-17T13:26:33.546Z,3.04
2022-08-17T13:31:41.800Z,3.04
2022-08-17T13:36:49.630Z,3.03
2022-08-17T13:41:56.041Z,3.04
2022-08-17T13:47:03.921Z,3.05
2022-08-17T13:52:12.519Z,3.04
2022-08-17T13:57:20.243Z,3.04
2022-08-17T14:02:27.451Z,3.04
2022-08-17T14:07:34.325Z,3.04
2022-08-17T14:12:42.832Z,3.05
2022-08-17T14:17:50.533Z,3.04
2022-08-17T14:22:58.496Z,3.04
2022-08-17T14:28:05.354Z,3.03
2022-08-17T14:33:13.355Z,3.04
2022-08-17T14:38:22.123Z,3.04
2022-08-17T14:43:29.498Z,3.04
2022-08-17T14:48:36.745Z,3.04
2022-08-17T14:53:45.047Z,3.04
2022-08-17T14:58:52.779Z,3.04
2022-08-17T15:04:04.787Z,3.04
2022-08-17T15:09:12.505Z,3.04
2022-08-17T15:14:19.734Z,3.04
2022-08-17T15:19:27.953Z,3.04
2022-08-17T15:24:34.778Z,3.04
2022-08-17T15:29:42.721Z,3.03
2022-08-17T15:34:51.026Z,3.04
2022-08-17T15:39:58.924Z,3.03
2022-08-17T15:45:06.761Z,3.04
2022-08-17T15:50:19.662Z,3.05
2022-08-17T15:55:27.191Z,3.03
2022-08-17T16:00:34.568Z,3.04
2022-08-17T16:05:41.054Z,3.04
2022-08-17T16:10:49.852Z,3.04
2022-08-17T16:15:56.447Z,3.04
2022-08-17T16:21:04.454Z,3.04
2022-08-17T16:26:12.627Z,3.05
2022-08-17T16:31:21.271Z,3.06
2022-08-17T16:36:28.911Z,3.04
2022-08-17T16:41:37.710Z,3.04
2022-08-17T16:46:44.342Z,3.03
2022-08-17T16:51:52.542Z,3.04
2022-08-17T16:57:00.635Z,3.04
2022-08-17T17:02:08.562Z,3.04
2022-08-17T17:07:15.867Z,3.04
2022-08-17T17:12:23.683Z,3.04
2022-08-17T17:17:31.683Z,3.04
2022-08-17T17:22:39.505Z,3.03
2022-08-17T17:27:46.860Z,3.04
2022-08-17T17:32:54.659Z,3.05
2022-08-17T17:38:02.558Z,3.04
2022-08-17T17:43:09.700Z,3.03
2022-08-17T17:48:16.987Z,3.04
2022-08-17T17:53:25.042Z,3.04
2022-08-17T17:58:32.509Z,3.04
2022-08-17T18:03:40.182Z,3.03
2022-08-17T18:08:47.561Z,3.03
2022-08-17T18:13:55.689Z,3.04
2022-08-17T18:19:03.295Z,3.04
2022-08-17T18:24:10.459Z,3.04
2022-08-17T18:29:17.749Z,3.04
2022-08-17T18:34:24.586Z,3.03
2022-08-17T18:39:33.282Z,3.03
2022-08-17T18:44:40.702Z,3.03
2022-08-17T18:49:48.191Z,3.03
2022-08-17T18:54:56.722Z,3.03
2022-08-17T19:00:10.786Z,3.03
2022-08-17T19:05:17.773Z,3.03
2022-08-17T19:10:24.895Z,3.04
2022-08-17T19:15:31.446Z,3.03
2022-08-17T19:20:38.657Z,3.03
2022-08-17T19:25:46.899Z,3.03
2022-08-17T19:30:53.697Z,3.04
2022-08-17T19:36:01.443Z,3.02
2022-08-17T19:41:10.197Z,3.03
2022-08-17T19:46:17.407Z,3.03
2022-08-17T19:51:26.760Z,3.02
2022-08-17T19:56:34.182Z,3.03
2022-08-17T20:01:42.616Z,3.02
2022-08-17T20:06:52.557Z,3.03
2022-08-17T20:12:00.183Z,3.02
2022-08-17T20:17:06.814Z,3.03
2022-08-17T20:22:14.011Z,3.04
2022-08-17T20:27:22.692Z,3.02
2022-08-17T20:32:30.619Z,3.02
2022-08-17T20:37:37.603Z,3.02
2022-08-17T20:42:45.050Z,3.03
2022-08-17T20:47:53.105Z,3.02
2022-08-17T20:53:01.054Z,3.03
2022-08-17T20:58:09.314Z,3.02
2022-08-17T21:03:16.091Z,3.03
2022-08-17T21:08:23.894Z,3.02
2022-08-17T21:13:31.769Z,3.03
2022-08-17T21:18:39.402Z,3.02
2022-08-17T21:23:47.487Z,3.03
2022-08-17T21:28:54.651Z,3.02
2022-08-17T21:34:01.857Z,3.01
2022-08-17T21:39:09.924Z,3.02
2022-08-17T21:44:19.913Z,3.03
2022-08-17T21:49:26.655Z,3.02
2022-08-17T21:54:33.859Z,3.02
2022-08-17T21:59:41.707Z,3.02
2022-08-17T22:04:49.994Z,3.02
2022-08-17T22:09:58.171Z,3.02
2022-08-17T22:15:05.956Z,3.03
2022-08-17T22:20:14.010Z,3.02
2022-08-17T22:25:22.542Z,3.03
2022-08-17T22:30:29.374Z,3.02
2022-08-17T22:35:37.022Z,3.02
2022-08-17T22:40:45.384Z,3.02
2022-08-17T22:45:53.739Z,3.04
2022-08-17T22:51:01.939Z,3.02
2022-08-17T22:56:09.217Z,3.01
2022-08-17T23:01:16.416Z,3.01
2022-08-17T23:06:23.455Z,3.02
2022-08-17T23:11:31.992Z,3.02
2022-08-17T23:16:40.578Z,3.02
2022-08-17T23:21:48.078Z,3.03
2022-08-17T23:26:55.856Z,3.02
2022-08-17T23:32:04.260Z,3.02
2022-08-17T23:37:11.341Z,3.02
2022-08-17T23:42:19.707Z,3.02
2022-08-17T23:47:27.820Z,3.02
2022-08-17T23:52:35.858Z,3.01
2022-08-17T23:57:44.135Z,3.01
